sensor_id;sensor_type;location;lat;lon;timestamp;P1;durP1;ratioP1;P2;durP2;ratioP2
64816;SDS011;69411;45.656;11.740;2023-08-06T00:06:42;2.47;;;1.80;;
64816;SDS011;69411;45.656;11.740;2023-08-06T00:09:10;2.70;;;1.65;;
64816;SDS011;69411;45.656;11.740;2023-08-06T00:11:38;2.00;;;1.73;;
64816;SDS011;69411;45.656;11.740;2023-08-06T00:14:08;3.42;;;2.10;;
64816;SDS011;69411;45.656;11.740;2023-08-06T00:16:34;2.75;;;2.10;;
64816;SDS011;69411;45.656;11.740;2023-08-06T00:19:00;4.88;;;2.30;;
64816;SDS011;69411;45.656;11.740;2023-08-06T00:21:26;3.28;;;2.47;;
64816;SDS011;69411;45.656;11.740;2023-08-06T00:23:52;2.97;;;2.42;;
64816;SDS011;69411;45.656;11.740;2023-08-06T00:26:20;2.90;;;2.22;;
64816;SDS011;69411;45.656;11.740;2023-08-06T00:28:48;4.20;;;2.25;;
64816;SDS011;69411;45.656;11.740;2023-08-06T00:31:15;3.42;;;2.20;;
64816;SDS011;69411;45.656;11.740;2023-08-06T00:33:43;5.63;;;2.50;;
64816;SDS011;69411;45.656;11.740;2023-08-06T00:36:11;2.85;;;2.55;;
64816;SDS011;69411;45.656;11.740;2023-08-06T00:38:37;5.95;;;2.67;;
64816;SDS011;69411;45.656;11.740;2023-08-06T00:41:03;9.15;;;4.75;;
64816;SDS011;69411;45.656;11.740;2023-08-06T00:43:29;13.02;;;6.93;;
64816;SDS011;69411;45.656;11.740;2023-08-06T00:45:55;14.93;;;7.00;;
64816;SDS011;69411;45.656;11.740;2023-08-06T00:48:21;15.95;;;7.28;;
64816;SDS011;69411;45.656;11.740;2023-08-06T00:50:48;15.55;;;7.47;;
64816;SDS011;69411;45.656;11.740;2023-08-06T00:53:14;14.18;;;8.45;;
64816;SDS011;69411;45.656;11.740;2023-08-06T00:55:41;15.35;;;7.90;;
64816;SDS011;69411;45.656;11.740;2023-08-06T00:58:12;16.77;;;7.97;;
64816;SDS011;69411;45.656;11.740;2023-08-06T01:00:41;14.85;;;8.43;;
64816;SDS011;69411;45.656;11.740;2023-08-06T01:03:07;14.52;;;7.80;;
64816;SDS011;69411;45.656;11.740;2023-08-06T01:05:36;14.55;;;7.80;;
64816;SDS011;69411;45.656;11.740;2023-08-06T01:10:51;13.43;;;6.85;;
64816;SDS011;69411;45.656;11.740;2023-08-06T01:13:46;9.82;;;5.35;;
64816;SDS011;69411;45.656;11.740;2023-08-06T01:16:17;7.90;;;4.50;;
64816;SDS011;69411;45.656;11.740;2023-08-06T01:18:58;7.20;;;4.38;;
64816;SDS011;69411;45.656;11.740;2023-08-06T01:21:25;9.43;;;3.90;;
64816;SDS011;69411;45.656;11.740;2023-08-06T01:23:53;5.07;;;3.15;;
64816;SDS011;69411;45.656;11.740;2023-08-06T01:26:37;4.80;;;2.90;;
64816;SDS011;69411;45.656;11.740;2023-08-06T01:32:11;4.53;;;2.70;;
64816;SDS011;69411;45.656;11.740;2023-08-06T01:34:41;5.38;;;2.78;;
64816;SDS011;69411;45.656;11.740;2023-08-06T01:37:11;5.28;;;2.60;;
64816;SDS011;69411;45.656;11.740;2023-08-06T01:39:42;3.92;;;2.45;;
64816;SDS011;69411;45.656;11.740;2023-08-06T01:42:10;3.67;;;2.25;;
64816;SDS011;69411;45.656;11.740;2023-08-06T01:44:52;2.90;;;2.05;;
64816;SDS011;69411;45.656;11.740;2023-08-06T01:47:19;2.60;;;2.40;;
64816;SDS011;69411;45.656;11.740;2023-08-06T01:49:47;3.30;;;2.10;;
64816;SDS011;69411;45.656;11.740;2023-08-06T01:52:15;3.53;;;2.60;;
64816;SDS011;69411;45.656;11.740;2023-08-06T01:54:43;4.53;;;2.88;;
64816;SDS011;69411;45.656;11.740;2023-08-06T01:57:11;9.27;;;2.85;;
64816;SDS011;69411;45.656;11.740;2023-08-06T01:59:38;5.05;;;2.40;;
64816;SDS011;69411;45.656;11.740;2023-08-06T02:02:06;3.08;;;2.70;;
64816;SDS011;69411;45.656;11.740;2023-08-06T02:04:34;3.70;;;2.78;;
64816;SDS011;69411;45.656;11.740;2023-08-06T02:07:02;3.95;;;2.67;;
64816;SDS011;69411;45.656;11.740;2023-08-06T02:09:28;3.10;;;2.65;;
64816;SDS011;69411;45.656;11.740;2023-08-06T02:11:56;4.82;;;2.80;;
64816;SDS011;69411;45.656;11.740;2023-08-06T02:14:22;6.07;;;3.17;;
64816;SDS011;69411;45.656;11.740;2023-08-06T02:16:48;5.22;;;3.20;;
64816;SDS011;69411;45.656;11.740;2023-08-06T02:19:15;6.18;;;3.47;;
64816;SDS011;69411;45.656;11.740;2023-08-06T02:21:41;7.03;;;2.90;;
64816;SDS011;69411;45.656;11.740;2023-08-06T02:24:22;5.50;;;2.78;;
64816;SDS011;69411;45.656;11.740;2023-08-06T02:26:48;6.45;;;2.90;;
64816;SDS011;69411;45.656;11.740;2023-08-06T02:29:18;3.20;;;2.70;;
64816;SDS011;69411;45.656;11.740;2023-08-06T02:31:46;5.40;;;3.03;;
64816;SDS011;69411;45.656;11.740;2023-08-06T02:34:13;3.28;;;2.60;;
64816;SDS011;69411;45.656;11.740;2023-08-06T02:36:53;3.53;;;2.60;;
64816;SDS011;69411;45.656;11.740;2023-08-06T02:39:31;5.53;;;2.63;;
64816;SDS011;69411;45.656;11.740;2023-08-06T02:42:01;5.30;;;2.70;;
64816;SDS011;69411;45.656;11.740;2023-08-06T02:44:30;4.63;;;2.72;;
64816;SDS011;69411;45.656;11.740;2023-08-06T02:46:56;4.45;;;2.83;;
64816;SDS011;69411;45.656;11.740;2023-08-06T02:49:22;8.23;;;3.08;;
64816;SDS011;69411;45.656;11.740;2023-08-06T02:51:48;3.15;;;2.65;;
64816;SDS011;69411;45.656;11.740;2023-08-06T02:54:14;5.30;;;3.05;;
64816;SDS011;69411;45.656;11.740;2023-08-06T02:56:42;3.40;;;2.80;;
64816;SDS011;69411;45.656;11.740;2023-08-06T02:59:10;3.83;;;2.83;;
64816;SDS011;69411;45.656;11.740;2023-08-06T03:01:36;4.00;;;2.80;;
64816;SDS011;69411;45.656;11.740;2023-08-06T03:04:03;3.83;;;2.40;;
64816;SDS011;69411;45.656;11.740;2023-08-06T03:06:30;3.33;;;2.35;;
64816;SDS011;69411;45.656;11.740;2023-08-06T03:08:56;4.60;;;2.30;;
64816;SDS011;69411;45.656;11.740;2023-08-06T03:11:22;7.50;;;2.70;;
64816;SDS011;69411;45.656;11.740;2023-08-06T03:13:48;3.88;;;2.50;;
64816;SDS011;69411;45.656;11.740;2023-08-06T03:16:14;6.55;;;2.20;;
64816;SDS011;69411;45.656;11.740;2023-08-06T03:18:40;4.18;;;2.35;;
64816;SDS011;69411;45.656;11.740;2023-08-06T03:21:06;5.60;;;1.80;;
64816;SDS011;69411;45.656;11.740;2023-08-06T03:23:32;1.98;;;1.58;;
64816;SDS011;69411;45.656;11.740;2023-08-06T03:26:03;2.03;;;1.35;;
64816;SDS011;69411;45.656;11.740;2023-08-06T03:28:29;1.63;;;1.45;;
64816;SDS011;69411;45.656;11.740;2023-08-06T03:30:59;2.95;;;1.45;;
64816;SDS011;69411;45.656;11.740;2023-08-06T03:33:26;3.67;;;1.50;;
64816;SDS011;69411;45.656;11.740;2023-08-06T03:35:52;3.13;;;1.40;;
64816;SDS011;69411;45.656;11.740;2023-08-06T03:38:18;4.53;;;1.50;;
64816;SDS011;69411;45.656;11.740;2023-08-06T03:40:45;2.78;;;1.42;;
64816;SDS011;69411;45.656;11.740;2023-08-06T03:43:12;2.83;;;1.40;;
64816;SDS011;69411;45.656;11.740;2023-08-06T03:45:38;3.22;;;1.30;;
64816;SDS011;69411;45.656;11.740;2023-08-06T03:48:05;2.67;;;1.33;;
64816;SDS011;69411;45.656;11.740;2023-08-06T03:50:31;1.10;;;1.10;;
64816;SDS011;69411;45.656;11.740;2023-08-06T03:52:57;2.20;;;1.58;;
64816;SDS011;69411;45.656;11.740;2023-08-06T03:55:23;1.13;;;1.10;;
64816;SDS011;69411;45.656;11.740;2023-08-06T03:57:49;3.53;;;1.50;;
64816;SDS011;69411;45.656;11.740;2023-08-06T04:00:15;1.92;;;1.33;;
64816;SDS011;69411;45.656;11.740;2023-08-06T04:02:41;1.45;;;1.35;;
64816;SDS011;69411;45.656;11.740;2023-08-06T04:05:07;0.90;;;0.90;;
64816;SDS011;69411;45.656;11.740;2023-08-06T04:07:33;1.15;;;1.00;;
64816;SDS011;69411;45.656;11.740;2023-08-06T04:10:00;1.20;;;1.10;;
64816;SDS011;69411;45.656;11.740;2023-08-06T04:12:28;2.72;;;1.38;;
64816;SDS011;69411;45.656;11.740;2023-08-06T04:14:55;4.25;;;1.50;;
64816;SDS011;69411;45.656;11.740;2023-08-06T04:17:22;3.67;;;1.90;;
64816;SDS011;69411;45.656;11.740;2023-08-06T04:19:52;3.28;;;1.70;;
64816;SDS011;69411;45.656;11.740;2023-08-06T04:22:19;4.53;;;2.00;;
64816;SDS011;69411;45.656;11.740;2023-08-06T04:24:46;2.58;;;1.90;;
64816;SDS011;69411;45.656;11.740;2023-08-06T04:27:13;2.10;;;1.90;;
64816;SDS011;69411;45.656;11.740;2023-08-06T04:29:39;3.88;;;1.63;;
64816;SDS011;69411;45.656;11.740;2023-08-06T04:32:06;1.88;;;1.58;;
64816;SDS011;69411;45.656;11.740;2023-08-06T04:34:33;2.72;;;1.80;;
64816;SDS011;69411;45.656;11.740;2023-08-06T04:37:00;1.50;;;1.33;;
64816;SDS011;69411;45.656;11.740;2023-08-06T04:39:26;3.03;;;1.80;;
64816;SDS011;69411;45.656;11.740;2023-08-06T04:41:52;3.00;;;1.70;;
64816;SDS011;69411;45.656;11.740;2023-08-06T04:44:18;2.45;;;1.40;;
64816;SDS011;69411;45.656;11.740;2023-08-06T04:46:44;2.03;;;1.80;;
64816;SDS011;69411;45.656;11.740;2023-08-06T04:49:10;3.42;;;1.48;;
64816;SDS011;69411;45.656;11.740;2023-08-06T04:51:36;4.40;;;1.73;;
64816;SDS011;69411;45.656;11.740;2023-08-06T04:54:02;5.22;;;1.80;;
64816;SDS011;69411;45.656;11.740;2023-08-06T04:56:28;2.20;;;1.60;;
64816;SDS011;69411;45.656;11.740;2023-08-06T04:58:54;1.50;;;1.40;;
64816;SDS011;69411;45.656;11.740;2023-08-06T05:01:21;1.70;;;1.42;;
64816;SDS011;69411;45.656;11.740;2023-08-06T05:03:47;1.55;;;1.15;;
64816;SDS011;69411;45.656;11.740;2023-08-06T05:06:13;2.25;;;1.40;;
64816;SDS011;69411;45.656;11.740;2023-08-06T05:08:39;1.50;;;1.40;;
64816;SDS011;69411;45.656;11.740;2023-08-06T05:11:05;1.90;;;1.20;;
64816;SDS011;69411;45.656;11.740;2023-08-06T05:13:31;3.83;;;1.70;;
64816;SDS011;69411;45.656;11.740;2023-08-06T05:15:57;1.85;;;1.20;;
64816;SDS011;69411;45.656;11.740;2023-08-06T05:18:23;3.28;;;1.40;;
64816;SDS011;69411;45.656;11.740;2023-08-06T05:20:49;1.17;;;1.08;;
64816;SDS011;69411;45.656;11.740;2023-08-06T05:23:15;0.90;;;0.90;;
64816;SDS011;69411;45.656;11.740;2023-08-06T05:25:42;1.20;;;1.10;;
64816;SDS011;69411;45.656;11.740;2023-08-06T05:28:08;2.63;;;1.10;;
64816;SDS011;69411;45.656;11.740;2023-08-06T05:30:34;4.65;;;1.25;;
64816;SDS011;69411;45.656;11.740;2023-08-06T05:33:04;1.63;;;1.00;;
64816;SDS011;69411;45.656;11.740;2023-08-06T05:35:30;2.25;;;0.93;;
64816;SDS011;69411;45.656;11.740;2023-08-06T05:37:56;1.30;;;0.90;;
64816;SDS011;69411;45.656;11.740;2023-08-06T05:40:22;2.92;;;0.90;;
64816;SDS011;69411;45.656;11.740;2023-08-06T05:42:51;1.67;;;1.13;;
64816;SDS011;69411;45.656;11.740;2023-08-06T05:45:18;2.25;;;0.88;;
64816;SDS011;69411;45.656;11.740;2023-08-06T05:47:44;1.85;;;1.00;;
64816;SDS011;69411;45.656;11.740;2023-08-06T05:50:10;1.65;;;0.88;;
64816;SDS011;69411;45.656;11.740;2023-08-06T05:52:36;0.60;;;0.60;;
64816;SDS011;69411;45.656;11.740;2023-08-06T05:55:02;2.03;;;0.80;;
64816;SDS011;69411;45.656;11.740;2023-08-06T05:57:28;2.92;;;0.90;;
64816;SDS011;69411;45.656;11.740;2023-08-06T05:59:54;2.10;;;0.85;;
64816;SDS011;69411;45.656;11.740;2023-08-06T06:02:20;2.05;;;1.05;;
64816;SDS011;69411;45.656;11.740;2023-08-06T06:04:47;1.35;;;1.00;;
64816;SDS011;69411;45.656;11.740;2023-08-06T06:07:13;0.60;;;0.60;;
64816;SDS011;69411;45.656;11.740;2023-08-06T06:09:39;1.02;;;0.80;;
64816;SDS011;69411;45.656;11.740;2023-08-06T06:12:05;2.40;;;1.00;;
64816;SDS011;69411;45.656;11.740;2023-08-06T06:14:32;2.50;;;0.80;;
64816;SDS011;69411;45.656;11.740;2023-08-06T06:16:58;1.00;;;0.90;;
64816;SDS011;69411;45.656;11.740;2023-08-06T06:19:25;1.30;;;0.80;;
64816;SDS011;69411;45.656;11.740;2023-08-06T06:21:51;1.58;;;1.25;;
64816;SDS011;69411;45.656;11.740;2023-08-06T06:24:18;0.93;;;0.82;;
64816;SDS011;69411;45.656;11.740;2023-08-06T06:26:44;2.38;;;1.42;;
64816;SDS011;69411;45.656;11.740;2023-08-06T06:29:10;1.00;;;0.98;;
64816;SDS011;69411;45.656;11.740;2023-08-06T06:31:36;2.45;;;1.05;;
64816;SDS011;69411;45.656;11.740;2023-08-06T06:34:02;1.70;;;1.00;;
64816;SDS011;69411;45.656;11.740;2023-08-06T06:36:28;1.13;;;0.95;;
64816;SDS011;69411;45.656;11.740;2023-08-06T06:38:54;2.22;;;1.08;;
64816;SDS011;69411;45.656;11.740;2023-08-06T06:41:20;1.10;;;1.00;;
64816;SDS011;69411;45.656;11.740;2023-08-06T06:43:46;1.25;;;0.80;;
64816;SDS011;69411;45.656;11.740;2023-08-06T06:46:12;2.75;;;1.40;;
64816;SDS011;69411;45.656;11.740;2023-08-06T06:48:38;2.15;;;1.20;;
64816;SDS011;69411;45.656;11.740;2023-08-06T06:51:04;1.35;;;1.25;;
64816;SDS011;69411;45.656;11.740;2023-08-06T06:53:30;2.22;;;1.20;;
64816;SDS011;69411;45.656;11.740;2023-08-06T06:56:05;2.88;;;1.00;;
64816;SDS011;69411;45.656;11.740;2023-08-06T06:58:33;2.50;;;1.10;;
64816;SDS011;69411;45.656;11.740;2023-08-06T07:01:02;2.95;;;1.20;;
64816;SDS011;69411;45.656;11.740;2023-08-06T07:03:30;1.00;;;1.00;;
64816;SDS011;69411;45.656;11.740;2023-08-06T07:05:59;1.20;;;1.10;;
64816;SDS011;69411;45.656;11.740;2023-08-06T07:08:25;2.50;;;1.17;;
64816;SDS011;69411;45.656;11.740;2023-08-06T07:10:58;0.95;;;0.93;;
64816;SDS011;69411;45.656;11.740;2023-08-06T07:13:26;2.13;;;1.10;;
64816;SDS011;69411;45.656;11.740;2023-08-06T07:15:53;1.48;;;1.38;;
64816;SDS011;69411;45.656;11.740;2023-08-06T07:18:20;1.30;;;1.20;;
64816;SDS011;69411;45.656;11.740;2023-08-06T07:20:50;3.28;;;1.60;;
64816;SDS011;69411;45.656;11.740;2023-08-06T07:23:16;1.70;;;1.10;;
64816;SDS011;69411;45.656;11.740;2023-08-06T07:25:44;1.70;;;1.45;;
64816;SDS011;69411;45.656;11.740;2023-08-06T07:28:11;1.98;;;1.65;;
64816;SDS011;69411;45.656;11.740;2023-08-06T07:30:40;3.80;;;1.60;;
64816;SDS011;69411;45.656;11.740;2023-08-06T07:33:07;4.30;;;1.70;;
64816;SDS011;69411;45.656;11.740;2023-08-06T07:35:33;2.08;;;1.88;;
64816;SDS011;69411;45.656;11.740;2023-08-06T07:38:00;3.10;;;1.60;;
64816;SDS011;69411;45.656;11.740;2023-08-06T07:40:27;3.25;;;2.20;;
64816;SDS011;69411;45.656;11.740;2023-08-06T07:42:53;4.95;;;1.90;;
64816;SDS011;69411;45.656;11.740;2023-08-06T07:45:21;4.45;;;2.30;;
64816;SDS011;69411;45.656;11.740;2023-08-06T07:47:47;2.22;;;2.05;;
64816;SDS011;69411;45.656;11.740;2023-08-06T07:50:13;2.33;;;2.10;;
64816;SDS011;69411;45.656;11.740;2023-08-06T07:52:39;3.00;;;2.60;;
64816;SDS011;69411;45.656;11.740;2023-08-06T07:55:07;2.40;;;2.20;;
64816;SDS011;69411;45.656;11.740;2023-08-06T07:57:35;2.20;;;1.98;;
64816;SDS011;69411;45.656;11.740;2023-08-06T08:00:03;2.13;;;1.83;;
64816;SDS011;69411;45.656;11.740;2023-08-06T08:02:30;4.07;;;1.90;;
64816;SDS011;69411;45.656;11.740;2023-08-06T08:04:56;3.80;;;2.17;;
64816;SDS011;69411;45.656;11.740;2023-08-06T08:07:22;2.35;;;2.03;;
64816;SDS011;69411;45.656;11.740;2023-08-06T08:09:48;2.85;;;2.00;;
64816;SDS011;69411;45.656;11.740;2023-08-06T08:12:14;3.60;;;2.03;;
64816;SDS011;69411;45.656;11.740;2023-08-06T08:14:40;2.55;;;2.20;;
64816;SDS011;69411;45.656;11.740;2023-08-06T08:17:06;3.17;;;2.22;;
64816;SDS011;69411;45.656;11.740;2023-08-06T08:19:32;3.53;;;2.58;;
64816;SDS011;69411;45.656;11.740;2023-08-06T08:22:00;3.00;;;1.90;;
64816;SDS011;69411;45.656;11.740;2023-08-06T08:24:28;3.20;;;2.50;;
64816;SDS011;69411;45.656;11.740;2023-08-06T08:27:00;5.45;;;2.53;;
64816;SDS011;69411;45.656;11.740;2023-08-06T08:29:28;2.10;;;1.80;;
64816;SDS011;69411;45.656;11.740;2023-08-06T08:31:54;4.63;;;3.22;;
64816;SDS011;69411;45.656;11.740;2023-08-06T08:34:25;4.43;;;3.00;;
64816;SDS011;69411;45.656;11.740;2023-08-06T08:36:51;3.70;;;2.50;;
64816;SDS011;69411;45.656;11.740;2023-08-06T08:39:19;6.65;;;2.97;;
64816;SDS011;69411;45.656;11.740;2023-08-06T08:41:45;4.32;;;2.60;;
64816;SDS011;69411;45.656;11.740;2023-08-06T08:44:11;3.05;;;2.45;;
64816;SDS011;69411;45.656;11.740;2023-08-06T08:46:41;4.82;;;3.00;;
64816;SDS011;69411;45.656;11.740;2023-08-06T08:49:10;4.05;;;2.70;;
64816;SDS011;69411;45.656;11.740;2023-08-06T08:51:37;3.80;;;2.78;;
64816;SDS011;69411;45.656;11.740;2023-08-06T08:54:06;4.30;;;2.42;;
64816;SDS011;69411;45.656;11.740;2023-08-06T08:56:34;3.38;;;2.38;;
64816;SDS011;69411;45.656;11.740;2023-08-06T08:59:00;3.25;;;2.38;;
64816;SDS011;69411;45.656;11.740;2023-08-06T09:01:28;4.22;;;2.03;;
64816;SDS011;69411;45.656;11.740;2023-08-06T09:03:56;1.60;;;1.50;;
64816;SDS011;69411;45.656;11.740;2023-08-06T09:06:23;3.78;;;2.70;;
64816;SDS011;69411;45.656;11.740;2023-08-06T09:08:56;3.20;;;2.00;;
64816;SDS011;69411;45.656;11.740;2023-08-06T09:11:32;4.50;;;2.08;;
64816;SDS011;69411;45.656;11.740;2023-08-06T09:14:07;2.30;;;2.10;;
64816;SDS011;69411;45.656;11.740;2023-08-06T09:16:36;2.75;;;2.22;;
64816;SDS011;69411;45.656;11.740;2023-08-06T09:19:09;2.33;;;1.58;;
64816;SDS011;69411;45.656;11.740;2023-08-06T09:21:40;3.80;;;1.73;;
64816;SDS011;69411;45.656;11.740;2023-08-06T09:24:09;2.25;;;1.63;;
64816;SDS011;69411;45.656;11.740;2023-08-06T09:26:39;2.03;;;1.50;;
64816;SDS011;69411;45.656;11.740;2023-08-06T09:29:07;2.13;;;1.60;;
64816;SDS011;69411;45.656;11.740;2023-08-06T09:31:42;1.30;;;1.20;;
64816;SDS011;69411;45.656;11.740;2023-08-06T09:34:10;2.30;;;1.30;;
64816;SDS011;69411;45.656;11.740;2023-08-06T09:36:43;2.28;;;1.45;;
64816;SDS011;69411;45.656;11.740;2023-08-06T09:39:16;3.67;;;2.20;;
64816;SDS011;69411;45.656;11.740;2023-08-06T09:42:07;2.53;;;1.58;;
64816;SDS011;69411;45.656;11.740;2023-08-06T09:44:35;2.78;;;1.38;;
64816;SDS011;69411;45.656;11.740;2023-08-06T09:51:56;1.55;;;1.17;;
64816;SDS011;69411;45.656;11.740;2023-08-06T09:54:25;2.25;;;1.00;;
64816;SDS011;69411;45.656;11.740;2023-08-06T09:56:55;1.25;;;1.15;;
64816;SDS011;69411;45.656;11.740;2023-08-06T09:59:24;1.38;;;1.20;;
64816;SDS011;69411;45.656;11.740;2023-08-06T10:01:53;2.35;;;1.48;;
64816;SDS011;69411;45.656;11.740;2023-08-06T10:04:22;1.70;;;1.30;;
64816;SDS011;69411;45.656;11.740;2023-08-06T10:06:49;1.92;;;1.27;;
64816;SDS011;69411;45.656;11.740;2023-08-06T10:09:16;1.83;;;1.27;;
64816;SDS011;69411;45.656;11.740;2023-08-06T10:11:51;1.33;;;1.08;;
64816;SDS011;69411;45.656;11.740;2023-08-06T10:16:54;2.38;;;1.40;;
64816;SDS011;69411;45.656;11.740;2023-08-06T10:19:23;1.90;;;1.30;;
64816;SDS011;69411;45.656;11.740;2023-08-06T10:24:56;2.13;;;1.60;;
64816;SDS011;69411;45.656;11.740;2023-08-06T10:27:53;2.10;;;1.25;;
64816;SDS011;69411;45.656;11.740;2023-08-06T10:30:42;2.42;;;1.05;;
64816;SDS011;69411;45.656;11.740;2023-08-06T10:33:10;1.92;;;1.35;;
64816;SDS011;69411;45.656;11.740;2023-08-06T10:38:11;2.70;;;1.65;;
64816;SDS011;69411;45.656;11.740;2023-08-06T10:40:49;1.92;;;1.73;;
64816;SDS011;69411;45.656;11.740;2023-08-06T10:43:31;1.10;;;1.00;;
64816;SDS011;69411;45.656;11.740;2023-08-06T10:46:02;1.52;;;1.42;;
64816;SDS011;69411;45.656;11.740;2023-08-06T10:48:39;2.13;;;1.40;;
64816;SDS011;69411;45.656;11.740;2023-08-06T10:51:07;1.48;;;1.38;;
64816;SDS011;69411;45.656;11.740;2023-08-06T10:53:37;1.55;;;1.30;;
64816;SDS011;69411;45.656;11.740;2023-08-06T10:56:26;2.35;;;1.45;;
64816;SDS011;69411;45.656;11.740;2023-08-06T10:58:55;2.22;;;1.52;;
64816;SDS011;69411;45.656;11.740;2023-08-06T11:01:23;2.55;;;1.98;;
64816;SDS011;69411;45.656;11.740;2023-08-06T11:03:49;2.22;;;1.90;;
64816;SDS011;69411;45.656;11.740;2023-08-06T11:06:20;1.70;;;1.60;;
64816;SDS011;69411;45.656;11.740;2023-08-06T11:08:51;1.35;;;1.25;;
64816;SDS011;69411;45.656;11.740;2023-08-06T11:11:18;3.10;;;1.77;;
64816;SDS011;69411;45.656;11.740;2023-08-06T11:13:49;1.95;;;1.60;;
64816;SDS011;69411;45.656;11.740;2023-08-06T11:16:18;1.90;;;1.80;;
64816;SDS011;69411;45.656;11.740;2023-08-06T11:18:58;4.05;;;1.70;;
64816;SDS011;69411;45.656;11.740;2023-08-06T11:21:25;2.72;;;1.88;;
64816;SDS011;69411;45.656;11.740;2023-08-06T11:23:55;1.85;;;1.75;;
64816;SDS011;69411;45.656;11.740;2023-08-06T11:26:23;1.75;;;1.50;;
64816;SDS011;69411;45.656;11.740;2023-08-06T11:28:49;2.55;;;2.03;;
64816;SDS011;69411;45.656;11.740;2023-08-06T11:31:21;2.72;;;1.67;;
64816;SDS011;69411;45.656;11.740;2023-08-06T11:33:51;2.42;;;1.70;;
64816;SDS011;69411;45.656;11.740;2023-08-06T11:36:40;4.53;;;1.88;;
64816;SDS011;69411;45.656;11.740;2023-08-06T11:39:06;2.00;;;1.80;;
64816;SDS011;69411;45.656;11.740;2023-08-06T11:41:38;2.10;;;1.52;;
64816;SDS011;69411;45.656;11.740;2023-08-06T11:44:05;3.13;;;2.03;;
64816;SDS011;69411;45.656;11.740;2023-08-06T11:46:50;4.63;;;1.98;;
64816;SDS011;69411;45.656;11.740;2023-08-06T11:49:43;1.88;;;1.45;;
64816;SDS011;69411;45.656;11.740;2023-08-06T11:52:19;1.75;;;1.65;;
64816;SDS011;69411;45.656;11.740;2023-08-06T11:55:01;1.95;;;1.73;;
64816;SDS011;69411;45.656;11.740;2023-08-06T11:57:35;1.50;;;1.40;;
64816;SDS011;69411;45.656;11.740;2023-08-06T12:00:04;3.28;;;1.80;;
64816;SDS011;69411;45.656;11.740;2023-08-06T12:02:41;1.83;;;1.60;;
64816;SDS011;69411;45.656;11.740;2023-08-06T12:05:14;2.17;;;1.70;;
64816;SDS011;69411;45.656;11.740;2023-08-06T12:07:52;1.50;;;1.40;;
64816;SDS011;69411;45.656;11.740;2023-08-06T12:10:21;1.63;;;1.53;;
64816;SDS011;69411;45.656;11.740;2023-08-06T12:12:49;1.65;;;1.50;;
64816;SDS011;69411;45.656;11.740;2023-08-06T12:15:15;1.50;;;1.40;;
64816;SDS011;69411;45.656;11.740;2023-08-06T12:17:44;1.67;;;1.33;;
64816;SDS011;69411;45.656;11.740;2023-08-06T12:20:10;1.80;;;1.70;;
64816;SDS011;69411;45.656;11.740;2023-08-06T12:22:39;1.48;;;1.38;;
64816;SDS011;69411;45.656;11.740;2023-08-06T12:25:12;1.40;;;1.30;;
64816;SDS011;69411;45.656;11.740;2023-08-06T12:27:40;1.33;;;1.23;;
64816;SDS011;69411;45.656;11.740;2023-08-06T12:30:07;2.05;;;1.40;;
64816;SDS011;69411;45.656;11.740;2023-08-06T12:32:37;1.40;;;1.30;;
64816;SDS011;69411;45.656;11.740;2023-08-06T12:35:06;1.20;;;1.10;;
64816;SDS011;69411;45.656;11.740;2023-08-06T12:37:35;1.50;;;1.40;;
64816;SDS011;69411;45.656;11.740;2023-08-06T12:40:04;2.40;;;1.45;;
64816;SDS011;69411;45.656;11.740;2023-08-06T12:42:32;1.30;;;1.20;;
64816;SDS011;69411;45.656;11.740;2023-08-06T12:44:58;3.00;;;1.20;;
64816;SDS011;69411;45.656;11.740;2023-08-06T12:47:29;2.38;;;1.42;;
64816;SDS011;69411;45.656;11.740;2023-08-06T12:49:58;1.35;;;1.17;;
64816;SDS011;69411;45.656;11.740;2023-08-06T12:52:25;1.55;;;1.38;;
64816;SDS011;69411;45.656;11.740;2023-08-06T12:54:53;2.28;;;1.45;;
64816;SDS011;69411;45.656;11.740;2023-08-06T12:57:21;1.10;;;1.10;;
64816;SDS011;69411;45.656;11.740;2023-08-06T12:59:49;1.60;;;1.30;;
64816;SDS011;69411;45.656;11.740;2023-08-06T13:02:15;2.17;;;1.70;;
64816;SDS011;69411;45.656;11.740;2023-08-06T13:04:41;1.63;;;1.52;;
64816;SDS011;69411;45.656;11.740;2023-08-06T13:07:09;1.73;;;1.52;;
64816;SDS011;69411;45.656;11.740;2023-08-06T13:09:35;1.63;;;1.40;;
64816;SDS011;69411;45.656;11.740;2023-08-06T13:14:29;2.05;;;1.88;;
64816;SDS011;69411;45.656;11.740;2023-08-06T13:16:55;3.63;;;1.67;;
64816;SDS011;69411;45.656;11.740;2023-08-06T13:19:23;1.80;;;1.70;;
64816;SDS011;69411;45.656;11.740;2023-08-06T13:24:25;2.05;;;1.85;;
64816;SDS011;69411;45.656;11.740;2023-08-06T13:26:55;2.13;;;1.65;;
64816;SDS011;69411;45.656;11.740;2023-08-06T13:29:24;3.17;;;2.20;;
64816;SDS011;69411;45.656;11.740;2023-08-06T13:31:52;4.68;;;2.65;;
64816;SDS011;69411;45.656;11.740;2023-08-06T13:34:18;5.85;;;3.90;;
64816;SDS011;69411;45.656;11.740;2023-08-06T13:36:47;6.88;;;4.57;;
64816;SDS011;69411;45.656;11.740;2023-08-06T13:39:15;7.80;;;5.50;;
64816;SDS011;69411;45.656;11.740;2023-08-06T13:41:48;4.82;;;3.65;;
64816;SDS011;69411;45.656;11.740;2023-08-06T13:44:15;7.05;;;4.88;;
64816;SDS011;69411;45.656;11.740;2023-08-06T13:46:44;5.93;;;3.85;;
64816;SDS011;69411;45.656;11.740;2023-08-06T13:49:10;4.25;;;3.20;;
64816;SDS011;69411;45.656;11.740;2023-08-06T13:51:38;3.67;;;2.90;;
64816;SDS011;69411;45.656;11.740;2023-08-06T13:54:05;4.13;;;3.00;;
64816;SDS011;69411;45.656;11.740;2023-08-06T13:56:34;3.70;;;2.45;;
64816;SDS011;69411;45.656;11.740;2023-08-06T13:59:04;2.33;;;2.13;;
64816;SDS011;69411;45.656;11.740;2023-08-06T14:01:31;2.33;;;2.10;;
64816;SDS011;69411;45.656;11.740;2023-08-06T14:03:59;3.42;;;2.30;;
64816;SDS011;69411;45.656;11.740;2023-08-06T14:06:25;3.03;;;2.00;;
64816;SDS011;69411;45.656;11.740;2023-08-06T14:08:52;2.60;;;2.00;;
64816;SDS011;69411;45.656;11.740;2023-08-06T14:11:23;3.72;;;2.33;;
64816;SDS011;69411;45.656;11.740;2023-08-06T14:13:57;2.30;;;2.10;;
64816;SDS011;69411;45.656;11.740;2023-08-06T14:16:23;3.45;;;2.42;;
64816;SDS011;69411;45.656;11.740;2023-08-06T14:18:49;3.60;;;2.45;;
64816;SDS011;69411;45.656;11.740;2023-08-06T14:21:14;3.55;;;2.20;;
64816;SDS011;69411;45.656;11.740;2023-08-06T14:23:41;2.22;;;1.83;;
64816;SDS011;69411;45.656;11.740;2023-08-06T14:26:07;3.38;;;2.35;;
64816;SDS011;69411;45.656;11.740;2023-08-06T14:28:35;2.53;;;1.85;;
64816;SDS011;69411;45.656;11.740;2023-08-06T14:31:01;1.92;;;1.83;;
64816;SDS011;69411;45.656;11.740;2023-08-06T14:33:31;3.25;;;1.80;;
64816;SDS011;69411;45.656;11.740;2023-08-06T14:35:59;2.05;;;1.85;;
64816;SDS011;69411;45.656;11.740;2023-08-06T14:38:27;2.17;;;1.92;;
64816;SDS011;69411;45.656;11.740;2023-08-06T14:40:53;1.98;;;1.63;;
64816;SDS011;69411;45.656;11.740;2023-08-06T14:43:19;2.78;;;1.77;;
64816;SDS011;69411;45.656;11.740;2023-08-06T14:45:46;2.97;;;1.58;;
64816;SDS011;69411;45.656;11.740;2023-08-06T14:48:14;2.22;;;1.55;;
64816;SDS011;69411;45.656;11.740;2023-08-06T14:50:41;3.45;;;1.92;;
64816;SDS011;69411;45.656;11.740;2023-08-06T14:53:07;1.80;;;1.63;;
64816;SDS011;69411;45.656;11.740;2023-08-06T14:55:35;2.15;;;1.80;;
64816;SDS011;69411;45.656;11.740;2023-08-06T14:58:01;2.08;;;1.40;;
64816;SDS011;69411;45.656;11.740;2023-08-06T15:00:27;1.88;;;1.58;;
64816;SDS011;69411;45.656;11.740;2023-08-06T15:02:53;2.78;;;1.52;;
64816;SDS011;69411;45.656;11.740;2023-08-06T15:05:20;2.95;;;1.60;;
64816;SDS011;69411;45.656;11.740;2023-08-06T15:07:48;1.30;;;1.20;;
64816;SDS011;69411;45.656;11.740;2023-08-06T15:10:15;1.48;;;1.30;;